Time;durP1;ratioP1;P1;durP2;ratioP2;P2;SDS_P1;SDS_P2;PMS_P1;PMS_P2;Temp;Humidity;BMP_temperature;BMP_pressure;BME280_temperature;BME280_humidity;BME280_pressure;Samples;Min_cycle;Max_cycle;Signal;HPM_P1;HPM_P2
2021/11/09 00:01:57;;;;;;;13.27;6.63;;;2.50;78.30;;;;;;5056507;28;20025;-68
2021/11/09 00:04:28;;;;;;;11.77;6.97;;;2.50;78.30;;;;;;5052038;28;20062;-68
2021/11/09 00:09:59;;;;;;;11.85;6.15;;;2.50;78.60;;;;;;5056907;28;20044;-68
2021/11/09 00:12:56;;;;;;;14.93;6.45;;;2.50;78.60;;;;;;5053022;28;20119;-66
2021/11/09 00:15:24;;;;;;;20.02;6.15;;;2.50;78.80;;;;;;5054698;28;20037;-67
2021/11/09 00:17:53;;;;;;;13.05;6.43;;;2.50;78.80;;;;;;5053272;28;20045;-68
2021/11/09 00:20:22;;;;;;;12.80;6.65;;;2.40;78.80;;;;;;5054772;28;20044;-67
2021/11/09 00:22:49;;;;;;;14.52;6.57;;;2.50;78.80;;;;;;5053746;28;20036;-68
2021/11/09 00:25:19;;;;;;;13.05;6.25;;;2.50;79.30;;;;;;5053925;28;20033;-67
2021/11/09 00:27:45;;;;;;;12.93;7.18;;;2.40;78.50;;;;;;5054538;28;20039;-68
2021/11/09 00:30:13;;;;;;;12.60;6.70;;;2.40;78.60;;;;;;5054306;28;20043;-68
2021/11/09 00:32:43;;;;;;;14.48;6.88;;;2.40;78.70;;;;;;5051323;28;20078;-67
2021/11/09 00:35:10;;;;;;;15.20;7.45;;;2.40;78.80;;;;;;5054515;28;20114;-68
2021/11/09 00:37:36;;;;;;;18.48;7.43;;;2.40;78.80;;;;;;5051803;28;20095;-67
2021/11/09 00:40:02;;;;;;;13.60;7.15;;;2.40;78.60;;;;;;5053559;28;20037;-68
2021/11/09 00:42:28;;;;;;;17.65;7.45;;;2.40;78.50;;;;;;5052670;28;20086;-68
2021/11/09 00:44:54;;;;;;;15.73;7.22;;;2.40;78.50;;;;;;5052224;28;20045;-68
2021/11/09 00:47:20;;;;;;;15.52;7.18;;;2.40;78.60;;;;;;5051112;28;20086;-68
2021/11/09 00:49:46;;;;;;;18.52;8.48;;;2.40;78.60;;;;;;5055265;28;20025;-68
2021/11/09 00:52:12;;;;;;;16.23;7.57;;;2.40;78.60;;;;;;5054460;28;20056;-68
2021/11/09 00:54:39;;;;;;;16.90;7.93;;;2.40;78.50;;;;;;5054796;28;20035;-68
2021/11/09 00:57:05;;;;;;;19.85;8.13;;;2.40;78.50;;;;;;5053043;28;20127;-68
2021/11/09 00:59:31;;;;;;;15.02;7.78;;;2.40;78.40;;;;;;5053105;28;20029;-68
2021/11/09 01:01:57;;;;;;;16.48;7.63;;;2.40;78.50;;;;;;5051495;28;20385;-68
2021/11/09 01:04:24;;;;;;;17.08;7.43;;;2.40;78.30;;;;;;5052408;28;20091;-68
2021/11/09 01:06:51;;;;;;;16.92;8.25;;;2.40;78.20;;;;;;5055976;28;20492;-67
2021/11/09 01:09:16;;;;;;;20.52;8.45;;;2.40;78.10;;;;;;5052303;28;20040;-67
2021/11/09 01:11:42;;;;;;;17.83;8.07;;;2.30;78.00;;;;;;5051266;28;20516;-68
2021/11/09 01:14:08;;;;;;;17.70;8.10;;;2.30;78.00;;;;;;5053370;28;20044;-68
2021/11/09 01:16:35;;;;;;;18.90;8.05;;;2.20;78.00;;;;;;5052156;28;20043;-68
2021/11/09 01:19:04;;;;;;;18.25;8.77;;;2.20;78.00;;;;;;5052069;28;20029;-68
2021/11/09 01:21:32;;;;;;;14.75;7.70;;;2.20;78.10;;;;;;5058131;28;20032;-68
2021/11/09 01:23:58;;;;;;;11.95;6.85;;;2.10;78.10;;;;;;5056658;28;20599;-68
2021/11/09 01:26:24;;;;;;;12.65;7.40;;;2.10;78.30;;;;;;5055400;28;20407;-67
2021/11/09 01:28:54;;;;;;;12.00;7.07;;;2.10;78.50;;;;;;5059023;28;20048;-67
2021/11/09 01:31:21;;;;;;;12.52;7.57;;;2.10;78.60;;;;;;5057203;28;20037;-68
2021/11/09 01:33:47;;;;;;;14.43;7.60;;;2.00;78.70;;;;;;5054969;28;20072;-68
2021/11/09 01:36:13;;;;;;;17.52;7.60;;;2.10;78.90;;;;;;5056025;28;20029;-68
2021/11/09 01:38:40;;;;;;;13.95;7.43;;;2.10;79.70;;;;;;5056506;28;20658;-68
2021/11/09 01:41:08;;;;;;;15.18;8.48;;;2.10;78.90;;;;;;5055195;28;20071;-68
2021/11/09 01:43:36;;;;;;;35.28;10.55;;;2.10;79.00;;;;;;5057230;28;20914;-67
2021/11/09 01:46:03;;;;;;;35.13;11.43;;;2.10;79.00;;;;;;5055507;28;20756;-68
2021/11/09 01:48:29;;;;;;;24.13;11.50;;;2.10;79.00;;;;;;5055825;28;20570;-68
2021/11/09 01:50:58;;;;;;;45.15;11.07;;;2.10;79.00;;;;;;5054927;28;20037;-67
2021/11/09 01:53:26;;;;;;;29.40;9.95;;;2.10;79.10;;;;;;5058031;28;20041;-67
2021/11/09 01:55:52;;;;;;;35.03;10.60;;;2.10;79.00;;;;;;5054593;28;20068;-68
2021/11/09 01:58:18;;;;;;;51.47;11.35;;;2.10;79.10;;;;;;5057106;28;20108;-68
2021/11/09 02:00:46;;;;;;;36.78;10.40;;;2.10;79.30;;;;;;5057347;28;20039;-66
2021/11/09 02:03:12;;;;;;;31.33;9.50;;;2.10;79.50;;;;;;5056942;28;20024;-68
2021/11/09 02:05:39;;;;;;;60.13;10.10;;;2.00;79.70;;;;;;5055161;28;20031;-67
2021/11/09 02:08:06;;;;;;;43.20;10.10;;;2.00;79.90;;;;;;5057965;28;20048;-68
2021/11/09 02:10:35;;;;;;;40.38;10.32;;;2.10;80.00;;;;;;5053264;28;20040;-68
2021/11/09 02:13:00;;;;;;;27.17;9.40;;;2.10;80.20;;;;;;5055433;28;20681;-68
2021/11/09 02:15:28;;;;;;;26.33;8.40;;;2.10;80.30;;;;;;5055401;28;20049;-68
2021/11/09 02:17:55;;;;;;;23.65;8.80;;;2.10;80.40;;;;;;5053890;28;20063;-68
2021/11/09 02:20:23;;;;;;;17.45;8.75;;;2.10;80.40;;;;;;5047472;28;20953;-67
2021/11/09 02:22:50;;;;;;;20.08;9.50;;;2.20;80.40;;;;;;5053520;28;20810;-68
2021/11/09 02:25:18;;;;;;;36.88;9.85;;;2.20;80.40;;;;;;5055296;28;20035;-67
2021/11/09 02:27:44;;;;;;;43.63;11.68;;;2.20;80.30;;;;;;5055352;28;20470;-68
2021/11/09 02:30:15;;;;;;;51.35;10.18;;;2.30;80.40;;;;;;5054900;28;20032;-67
2021/11/09 02:32:41;;;;;;;27.42;11.07;;;2.30;80.40;;;;;;5053609;28;20522;-68
2021/11/09 02:35:08;;;;;;;36.38;11.27;;;2.30;80.20;;;;;;5054780;28;20682;-68
2021/11/09 02:37:35;;;;;;;49.72;12.68;;;2.30;80.20;;;;;;5055136;28;20040;-67
2021/11/09 02:40:01;;;;;;;36.63;12.82;;;2.30;80.10;;;;;;5054862;28;20292;-68
2021/11/09 02:42:33;;;;;;;38.65;11.23;;;2.40;80.10;;;;;;5056847;28;20037;-68
2021/11/09 02:45:05;;;;;;;24.63;9.43;;;2.40;80.20;;;;;;5055091;28;20437;-67
2021/11/09 02:47:33;;;;;;;92.43;10.02;;;2.30;80.10;;;;;;5054769;28;20172;-68
2021/11/09 02:50:07;;;;;;;55.13;8.60;;;2.40;80.20;;;;;;5054568;28;20051;-68
2021/11/09 02:52:34;;;;;;;100.72;9.98;;;2.40;80.50;;;;;;5054392;28;20090;-68
2021/11/09 02:55:07;;;;;;;54.92;8.40;;;2.40;80.60;;;;;;5055347;28;20041;-68
2021/11/09 02:57:44;;;;;;;111.35;10.18;;;2.40;81.60;;;;;;5054325;28;20036;-68
2021/11/09 03:03:24;;;;;;;27.60;7.82;;;2.50;81.00;;;;;;5065692;28;20041;-66
2021/11/09 03:06:00;;;;;;;11.13;7.15;;;2.40;81.10;;;;;;5053952;28;20036;-67
2021/11/09 03:08:36;;;;;;;33.22;7.13;;;2.50;81.30;;;;;;5053081;28;20043;-67
2021/11/09 03:11:02;;;;;;;20.08;7.28;;;2.50;81.40;;;;;;5055027;28;20124;-67
2021/11/09 03:13:29;;;;;;;7.72;6.03;;;2.50;81.40;;;;;;5054709;28;20041;-68
2021/11/09 03:16:00;;;;;;;42.10;8.07;;;2.50;81.40;;;;;;5054485;28;20033;-65
2021/11/09 03:18:27;;;;;;;36.13;7.15;;;2.50;81.50;;;;;;5053078;28;20032;-68
2021/11/09 03:45:08;;;;;;;13.65;5.10;;;2.70;81.30;;;;;;5053172;28;20071;-68
2021/11/09 03:47:41;;;;;;;8.88;6.68;;;2.70;81.30;;;;;;5052041;28;20032;-68
2021/11/09 03:50:09;;;;;;;14.65;6.70;;;2.70;81.40;;;;;;5056430;28;20447;-68
2021/11/09 03:52:46;;;;;;;29.13;7.20;;;2.70;81.50;;;;;;5054305;28;20075;-68
2021/11/09 03:55:18;;;;;;;18.50;6.68;;;2.70;81.50;;;;;;5053925;28;20046;-68
2021/11/09 03:57:51;;;;;;;24.23;6.70;;;2.70;82.30;;;;;;5054930;28;20446;-67
2021/11/09 04:03:03;;;;;;;71.18;7.47;;;2.70;81.40;;;;;;5052833;28;20032;-68
2021/11/09 04:05:36;;;;;;;23.73;6.55;;;2.70;81.40;;;;;;5053157;28;20029;-67
2021/11/09 04:08:14;;;;;;;19.60;6.72;;;2.80;81.20;;;;;;5050647;28;20047;-68
2021/11/09 04:10:56;;;;;;;59.70;8.50;;;2.70;81.10;;;;;;5050675;28;20392;-67
2021/11/09 04:19:19;;;;;;;23.67;7.32;;;2.70;81.30;;;;;;5055552;28;20033;-68
2021/11/09 04:21:34;;;;;;;16.67;7.20;;;2.70;81.40;;;;;;5052365;28;20067;-67
2021/11/09 04:24:54;;;;;;;10.90;6.78;;;2.70;81.40;;;;;;5053869;28;20569;-67
2021/11/09 05:01:20;;;;;;;23.15;7.95;;;2.60;80.40;;;;;;5055833;28;20094;-67
2021/11/09 05:11:46;;;;;;;32.53;8.90;;;2.50;80.10;;;;;;5054949;28;20033;-69
2021/11/09 05:14:14;;;;;;;17.15;7.63;;;2.50;80.20;;;;;;5058252;28;20043;-70
2021/11/09 05:16:41;;;;;;;32.50;7.78;;;2.50;80.40;;;;;;5054715;28;20037;-67
2021/11/09 05:19:08;;;;;;;19.15;6.93;;;2.50;80.60;;;;;;5055857;28;20057;-68
2021/11/09 05:21:34;;;;;;;43.83;8.88;;;2.50;80.60;;;;;;5056855;28;20102;-70
2021/11/09 05:24:01;;;;;;;49.97;7.78;;;2.50;80.80;;;;;;5056557;28;20498;-69
2021/11/09 05:26:27;;;;;;;160.70;13.00;;;2.40;80.60;;;;;;5054859;28;20044;-68
2021/11/09 05:28:53;;;;;;;21.10;7.40;;;2.40;80.60;;;;;;5057690;28;20033;-70
2021/11/09 05:31:19;;;;;;;20.83;8.10;;;2.30;80.60;;;;;;5055726;28;20045;-69
2021/11/09 05:33:45;;;;;;;60.40;10.18;;;2.30;80.80;;;;;;5057847;28;20686;-69
2021/11/09 05:36:11;;;;;;;29.30;8.32;;;2.30;81.10;;;;;;5056031;28;21197;-69
2021/11/09 05:38:49;;;;;;;13.60;8.27;;;2.30;81.30;;;;;;5054732;28;20386;-69
2021/11/09 05:41:17;;;;;;;57.83;9.15;;;2.30;81.50;;;;;;5056169;28;20058;-68
2021/11/09 05:43:42;;;;;;;69.10;13.05;;;2.30;81.60;;;;;;5058582;28;20079;-69
2021/11/09 05:46:08;;;;;;;62.55;28.08;;;2.30;81.60;;;;;;5056987;28;20068;-69
2021/11/09 05:48:36;;;;;;;31.92;15.05;;;2.30;81.60;;;;;;5054943;28;20029;-69
2021/11/09 05:51:03;;;;;;;16.77;9.93;;;2.40;81.70;;;;;;5056335;28;20056;-69
2021/11/09 05:53:30;;;;;;;19.80;8.80;;;2.40;82.60;;;;;;5054401;28;20067;-69
2021/11/09 05:55:56;;;;;;;13.68;8.15;;;2.40;81.80;;;;;;5054171;28;20029;-70
2021/11/09 05:58:22;;;;;;;26.08;8.60;;;2.40;81.80;;;;;;5054234;28;20025;-69
2021/11/09 06:00:48;;;;;;;16.75;8.70;;;2.50;81.80;;;;;;5054813;28;20037;-69
2021/11/09 06:03:14;;;;;;;11.68;7.63;;;2.50;81.90;;;;;;5055561;28;20515;-68
2021/11/09 06:05:40;;;;;;;14.18;7.90;;;2.50;81.90;;;;;;5055743;28;20029;-69
2021/11/09 06:08:06;;;;;;;22.95;7.65;;;2.50;81.80;;;;;;5054524;28;20093;-69
2021/11/09 06:10:32;;;;;;;12.85;8.07;;;2.50;81.80;;;;;;5056436;28;20029;-69
2021/11/09 06:12:57;;;;;;;34.45;8.73;;;2.60;81.80;;;;;;5056502;28;20033;-68
2021/11/09 06:15:23;;;;;;;26.20;8.70;;;2.60;81.80;;;;;;5063317;28;20037;-66
2021/11/09 06:17:49;;;;;;;24.45;9.20;;;2.60;81.70;;;;;;5056515;28;20159;-69
2021/11/09 06:20:14;;;;;;;16.40;8.55;;;2.70;81.60;;;;;;5054623;28;20069;-69
2021/11/09 06:22:41;;;;;;;33.22;9.77;;;2.70;81.60;;;;;;5055086;28;20040;-69
2021/11/09 06:25:07;;;;;;;31.58;9.65;;;2.70;81.50;;;;;;5057076;28;20108;-70
2021/11/09 06:27:33;;;;;;;28.00;9.18;;;2.70;81.40;;;;;;5058824;28;20029;-70
2021/11/09 06:29:59;;;;;;;22.10;7.93;;;2.70;81.40;;;;;;5058052;28;20518;-69
2021/11/09 06:32:25;;;;;;;23.52;8.10;;;2.60;81.10;;;;;;5058256;28;20499;-69
2021/11/09 06:34:50;;;;;;;29.35;10.13;;;2.70;81.10;;;;;;5055318;28;20221;-69
2021/11/09 06:37:16;;;;;;;32.72;11.02;;;2.70;80.90;;;;;;5059357;28;20452;-69
2021/11/09 06:39:42;;;;;;;37.42;15.10;;;2.70;80.70;;;;;;5057481;28;20749;-69
2021/11/09 06:42:07;;;;;;;44.17;20.98;;;2.60;80.60;;;;;;5055802;28;20043;-70
2021/11/09 06:44:33;;;;;;;37.40;15.18;;;2.70;80.80;;;;;;5058034;28;20035;-70
2021/11/09 06:46:59;;;;;;;29.23;13.88;;;2.60;80.80;;;;;;5059084;28;20037;-69
2021/11/09 06:49:24;;;;;;;26.15;13.48;;;2.70;80.80;;;;;;5057891;28;20036;-70
2021/11/09 06:51:50;;;;;;;32.85;17.45;;;2.60;80.80;;;;;;5057548;28;20033;-73
2021/11/09 06:54:16;;;;;;;25.38;11.80;;;2.60;80.70;;;;;;5059000;28;20867;-69
2021/11/09 06:56:42;;;;;;;35.10;11.73;;;2.60;80.80;;;;;;5053409;28;20459;-68
2021/11/09 06:59:08;;;;;;;20.60;10.07;;;2.60;80.90;;;;;;5057667;28;20029;-69
2021/11/09 07:01:34;;;;;;;41.58;11.23;;;2.60;80.90;;;;;;5057501;28;20061;-70
2021/11/09 07:04:00;;;;;;;37.53;11.07;;;2.60;81.00;;;;;;5055530;28;20415;-69
2021/11/09 07:06:26;;;;;;;18.67;8.68;;;2.60;81.00;;;;;;5057878;28;20368;-70
2021/11/09 07:08:53;;;;;;;27.48;11.23;;;2.60;81.10;;;;;;5059368;28;20032;-70
2021/11/09 07:11:19;;;;;;;22.73;8.82;;;2.60;81.20;;;;;;5054550;28;20044;-69
2021/11/09 07:13:46;;;;;;;26.77;9.20;;;2.60;82.10;;;;;;5053788;28;20045;-69
2021/11/09 07:16:12;;;;;;;26.75;12.07;;;2.60;81.30;;;;;;5058365;28;20496;-69
2021/11/09 07:18:39;;;;;;;19.10;9.77;;;2.60;81.40;;;;;;5055428;28;20036;-69
2021/11/09 07:21:04;;;;;;;18.30;9.40;;;2.70;81.50;;;;;;5056607;28;20040;-70
2021/11/09 07:23:31;;;;;;;16.98;9.45;;;2.70;81.60;;;;;;5057846;28;20035;-69
2021/11/09 07:25:56;;;;;;;17.48;9.52;;;2.70;81.70;;;;;;5056294;28;20037;-69
2021/11/09 07:28:22;;;;;;;20.75;10.45;;;2.70;81.80;;;;;;5055184;28;20287;-69
2021/11/09 07:30:58;;;;;;;14.13;9.45;;;2.70;81.90;;;;;;5054743;28;20044;-69
2021/11/09 07:33:25;;;;;;;17.17;10.05;;;2.70;82.00;;;;;;5056164;28;20032;-69
2021/11/09 07:35:51;;;;;;;19.55;10.13;;;2.80;82.10;;;;;;5056289;28;20032;-69
2021/11/09 07:38:17;;;;;;;18.45;9.98;;;2.80;82.20;;;;;;5057148;28;20396;-69
2021/11/09 07:40:48;;;;;;;20.52;10.98;;;2.80;82.20;;;;;;5055602;28;20033;-69
2021/11/09 07:43:14;;;;;;;20.45;10.30;;;2.90;82.40;;;;;;5055716;28;20059;-69
2021/11/09 07:45:40;;;;;;;22.17;10.50;;;2.90;82.50;;;;;;5057615;28;20024;-69
2021/11/09 07:48:06;;;;;;;18.40;9.52;;;2.90;82.50;;;;;;5057249;28;20033;-69
2021/11/09 07:50:32;;;;;;;17.77;9.80;;;3.00;82.60;;;;;;5056568;28;20047;-69
2021/11/09 07:52:59;;;;;;;19.38;10.05;;;3.00;82.70;;;;;;5056009;28;20032;-68
2021/11/09 07:55:27;;;;;;;18.88;10.30;;;3.10;82.80;;;;;;5056782;28;20499;-69
2021/11/09 07:57:56;;;;;;;16.15;10.07;;;3.10;82.70;;;;;;5058122;28;20114;-69
2021/11/09 08:00:31;;;;;;;16.95;9.27;;;3.10;82.70;;;;;;5056779;28;20112;-69
2021/11/09 08:03:14;;;;;;;18.27;9.80;;;3.10;82.80;;;;;;5055655;28;20488;-69
2021/11/09 08:08:22;;;;;;;15.77;8.98;;;3.20;83.20;;;;;;5058209;28;20028;-70
2021/11/09 08:10:48;;;;;;;18.38;9.75;;;3.20;83.20;;;;;;5056297;28;20561;-68
2021/11/09 08:13:14;;;;;;;18.73;10.02;;;3.20;83.40;;;;;;5058711;28;20041;-70
2021/11/09 08:15:40;;;;;;;16.23;9.18;;;3.20;83.70;;;;;;5055163;28;20045;-70
2021/11/09 08:18:06;;;;;;;20.95;9.40;;;3.30;84.00;;;;;;5056403;28;20347;-69
2021/11/09 08:20:32;;;;;;;20.58;8.95;;;3.30;84.10;;;;;;5056967;28;20052;-70
2021/11/09 08:22:58;;;;;;;17.17;9.25;;;3.30;84.40;;;;;;5055011;28;20028;-70
2021/11/09 08:25:24;;;;;;;21.58;10.02;;;3.30;84.60;;;;;;5057114;28;20514;-68
2021/11/09 08:27:49;;;;;;;17.83;9.57;;;3.40;85.00;;;;;;5057455;28;20044;-69
2021/11/09 08:30:15;;;;;;;22.25;10.20;;;3.40;85.10;;;;;;5053130;28;20745;-70
2021/11/09 08:32:42;;;;;;;18.52;9.77;;;3.50;84.90;;;;;;5056252;28;20210;-70
2021/11/09 08:35:11;;;;;;;18.35;9.77;;;3.60;85.10;;;;;;5055232;28;20047;-69
2021/11/09 08:37:37;;;;;;;19.10;9.50;;;3.60;85.30;;;;;;5053440;28;20037;-69
2021/11/09 08:40:10;;;;;;;18.92;9.35;;;3.70;85.30;;;;;;5056723;28;20110;-70
2021/11/09 08:42:40;;;;;;;16.17;9.07;;;3.70;85.30;;;;;;5054813;28;20396;-69
2021/11/09 08:47:54;;;;;;;18.27;9.60;;;3.90;86.00;;;;;;5056566;28;20399;-69
2021/11/09 08:50:22;;;;;;;17.83;9.38;;;3.90;84.90;;;;;;5053854;28;20514;-70
2021/11/09 08:52:49;;;;;;;18.70;9.77;;;4.00;84.90;;;;;;5050405;28;20518;-70
2021/11/09 08:56:24;;;;;;;20.77;10.05;;;4.00;84.90;;;;;;5055207;28;20586;-70
2021/11/09 08:58:19;;;;;;;19.17;9.40;;;4.10;84.90;;;;;;5055260;28;20045;-70
2021/11/09 09:06:14;;;;;;;19.67;10.07;;;4.30;84.90;;;;;;5055343;28;20067;-67
2021/11/09 09:08:39;;;;;;;18.23;9.45;;;4.30;84.90;;;;;;5053503;28;20055;-69
2021/11/09 09:11:05;;;;;;;17.13;9.38;;;4.40;85.00;;;;;;5057968;28;20097;-70
2021/11/09 09:13:31;;;;;;;20.55;10.13;;;4.40;84.90;;;;;;5057915;28;20025;-70
2021/11/09 09:15:57;;;;;;;19.13;10.30;;;4.50;85.10;;;;;;5057162;28;20479;-69
2021/11/09 09:18:22;;;;;;;25.20;10.77;;;4.50;85.40;;;;;;5057851;28;20064;-70
2021/11/09 09:20:56;;;;;;;25.98;11.05;;;4.60;85.50;;;;;;5056960;28;20388;-69
2021/11/09 09:23:25;;;;;;;17.80;9.98;;;4.60;85.60;;;;;;5057225;28;20025;-70
2021/11/09 09:26:39;;;;;;;20.27;11.10;;;4.70;85.80;;;;;;5055770;28;20037;-68
2021/11/09 09:29:12;;;;;;;22.02;10.23;;;4.80;85.80;;;;;;5059543;28;20029;-69
2021/11/09 09:56:15;;;;;;;18.88;9.90;;;5.80;85.40;;;;;;5059717;28;20069;-69
2021/11/09 09:58:41;;;;;;;16.83;8.77;;;5.90;85.30;;;;;;5056589;28;20033;-69
2021/11/09 10:01:07;;;;;;;17.83;8.93;;;6.00;84.80;;;;;;5059995;28;20077;-69
2021/11/09 10:03:34;;;;;;;20.05;9.82;;;6.10;84.50;;;;;;5060700;28;20028;-69
2021/11/09 10:06:02;;;;;;;18.05;9.52;;;6.20;84.40;;;;;;5059886;28;20511;-69
2021/11/09 10:08:39;;;;;;;14.23;9.20;;;6.30;84.20;;;;;;5060124;28;20025;-69
2021/11/09 10:11:04;;;;;;;17.42;9.27;;;6.40;84.00;;;;;;5057050;28;20051;-66
2021/11/09 10:13:39;;;;;;;17.23;9.40;;;6.40;83.70;;;;;;5058129;28;20036;-66
2021/11/09 10:16:05;;;;;;;18.05;9.00;;;6.50;83.50;;;;;;5060942;28;20024;-67
2021/11/09 10:18:41;;;;;;;16.55;9.52;;;6.60;83.60;;;;;;5057636;28;20028;-70
2021/11/09 10:21:07;;;;;;;18.38;8.43;;;6.70;83.40;;;;;;5055837;28;20032;-69
2021/11/09 10:23:34;;;;;;;19.52;9.90;;;6.80;83.30;;;;;;5059422;28;20036;-66
2021/11/09 10:26:14;;;;;;;20.42;8.48;;;6.80;83.20;;;;;;5058616;28;20053;-68
2021/11/09 10:28:41;;;;;;;20.17;10.40;;;6.90;82.90;;;;;;5057605;28;20028;-66
2021/11/09 10:31:10;;;;;;;15.60;8.82;;;7.00;83.00;;;;;;5060860;28;20521;-67
2021/11/09 10:33:45;;;;;;;17.60;8.68;;;7.10;82.90;;;;;;5058680;28;20036;-69
2021/11/09 10:36:21;;;;;;;14.18;8.40;;;7.20;83.00;;;;;;5057151;28;20127;-67
2021/11/09 10:38:48;;;;;;;18.05;8.40;;;7.30;82.70;;;;;;5060882;28;20025;-66
2021/11/09 10:41:15;;;;;;;12.80;7.55;;;7.40;82.60;;;;;;5058492;28;20025;-65
2021/11/09 10:43:41;;;;;;;14.68;8.00;;;7.50;82.60;;;;;;5057345;28;20035;-68
2021/11/09 10:46:07;;;;;;;13.73;8.02;;;7.50;82.30;;;;;;5059681;28;20534;-69
2021/11/09 10:48:35;;;;;;;17.02;7.55;;;7.70;82.00;;;;;;5057010;28;20125;-68
2021/11/09 10:51:02;;;;;;;13.07;7.03;;;7.70;81.70;;;;;;5055580;28;20577;-66
2021/11/09 10:53:33;;;;;;;15.13;7.45;;;7.80;81.20;;;;;;5059331;28;20040;-66
2021/11/09 11:04:36;;;;;;;14.80;6.82;;;8.10;80.30;;;;;;5058208;28;20071;-66
2021/11/09 11:07:04;;;;;;;11.88;6.80;;;8.20;79.60;;;;;;5054321;28;20078;-66
2021/11/09 11:09:30;;;;;;;12.05;6.85;;;8.30;80.00;;;;;;5058941;28;20466;-67
2021/11/09 11:11:59;;;;;;;15.13;7.25;;;8.40;79.90;;;;;;5055775;28;20047;-66
2021/11/09 11:14:27;;;;;;;13.75;6.95;;;8.50;79.90;;;;;;5055707;28;20040;-67
2021/11/09 11:16:59;;;;;;;11.50;7.05;;;8.50;79.30;;;;;;5059748;28;20033;-67
2021/11/09 11:19:37;;;;;;;11.23;6.65;;;8.60;78.90;;;;;;5057123;28;20040;-67
2021/11/09 11:22:04;;;;;;;10.82;6.07;;;8.70;78.80;;;;;;5057652;28;20052;-66
2021/11/09 11:24:30;;;;;;;12.23;7.35;;;8.70;78.50;;;;;;5057246;28;20031;-67
2021/11/09 11:26:58;;;;;;;10.90;6.20;;;8.80;78.20;;;;;;5057092;28;20572;-66
2021/11/09 11:29:26;;;;;;;12.25;6.00;;;8.90;77.90;;;;;;5057382;28;20037;-67
2021/11/09 11:31:53;;;;;;;12.63;6.10;;;8.90;77.70;;;;;;5058819;28;20419;-66
2021/11/09 11:34:21;;;;;;;13.13;6.90;;;9.00;77.40;;;;;;5056320;28;20047;-66
2021/11/09 11:36:49;;;;;;;14.20;6.45;;;9.00;77.90;;;;;;5056191;28;20029;-66
2021/11/09 11:39:17;;;;;;;11.52;6.50;;;9.10;77.20;;;;;;5057568;28;20055;-67
2021/11/09 11:41:45;;;;;;;10.43;5.30;;;9.20;76.60;;;;;;5056997;28;20407;-67
2021/11/09 11:44:19;;;;;;;9.40;5.30;;;9.30;76.30;;;;;;5058701;28;20048;-66
2021/11/09 11:46:47;;;;;;;9.13;5.25;;;9.30;76.00;;;;;;5057791;28;20082;-66
2021/11/09 11:49:37;;;;;;;8.75;4.78;;;9.40;75.90;;;;;;5059184;28;20407;-67
2021/11/09 11:52:05;;;;;;;9.38;4.70;;;9.50;75.00;;;;;;5057506;28;20028;-66
2021/11/09 11:55:05;;;;;;;8.05;4.40;;;9.50;75.10;;;;;;5057400;28;20132;-67
2021/11/09 11:57:37;;;;;;;8.52;3.85;;;9.60;73.50;;;;;;5057682;28;20028;-66
2021/11/09 12:01:00;;;;;;;10.18;4.38;;;9.70;74.20;;;;;;5059117;28;20240;-67
2021/11/09 12:03:26;;;;;;;7.68;4.32;;;9.70;72.80;;;;;;5056067;28;20467;-67
2021/11/09 12:05:53;;;;;;;8.27;4.18;;;9.80;73.90;;;;;;5057508;28;20056;-66
2021/11/09 12:08:33;;;;;;;8.35;4.03;;;9.80;73.90;;;;;;5058254;28;20070;-67
2021/11/09 12:10:59;;;;;;;9.98;4.20;;;9.90;71.80;;;;;;5059120;28;20036;-67
2021/11/09 12:13:25;;;;;;;6.93;4.32;;;9.80;72.60;;;;;;5057492;28;20024;-67
2021/11/09 12:15:54;;;;;;;6.40;3.88;;;9.90;72.30;;;;;;5057300;28;20032;-67
2021/11/09 12:18:28;;;;;;;6.82;3.80;;;9.90;71.80;;;;;;5058178;28;20395;-67
2021/11/09 12:21:30;;;;;;;6.32;3.67;;;9.90;70.90;;;;;;5057759;28;20388;-66
2021/11/09 12:24:07;;;;;;;9.95;4.20;;;9.90;71.30;;;;;;5057003;28;20036;-67
2021/11/09 12:26:55;;;;;;;9.18;4.07;;;9.90;70.70;;;;;;5057632;28;20029;-65
2021/11/09 12:29:36;;;;;;;6.68;4.13;;;9.90;70.50;;;;;;5058414;28;20037;-67
2021/11/09 12:32:42;;;;;;;7.20;3.85;;;10.00;70.40;;;;;;5058383;28;20047;-67
2021/11/09 12:35:22;;;;;;;8.38;4.03;;;10.00;69.60;;;;;;5054955;28;20067;-67
2021/11/09 12:38:01;;;;;;;6.65;3.67;;;10.00;70.50;;;;;;5058338;28;20742;-67
2021/11/09 12:40:28;;;;;;;6.63;4.05;;;10.00;70.00;;;;;;5057535;28;20031;-67
2021/11/09 12:43:10;;;;;;;6.40;3.58;;;10.00;70.60;;;;;;5057633;28;20033;-67
2021/11/09 12:45:38;;;;;;;7.25;3.70;;;10.00;69.20;;;;;;5057630;28;20056;-66
2021/11/09 12:48:07;;;;;;;9.30;4.25;;;10.10;70.00;;;;;;5059171;28;20041;-67
2021/11/09 12:50:34;;;;;;;7.40;3.88;;;10.10;69.70;;;;;;5057577;28;20036;-67
2021/11/09 12:53:11;;;;;;;6.38;3.53;;;10.10;70.10;;;;;;5057784;28;20107;-67
2021/11/09 12:55:38;;;;;;;6.95;3.67;;;10.10;69.40;;;;;;5057304;28;20116;-67
2021/11/09 12:58:44;;;;;;;8.60;3.65;;;10.10;70.20;;;;;;5058011;28;20391;-67
2021/11/09 13:01:17;;;;;;;7.78;4.05;;;10.20;69.30;;;;;;5035619;28;20041;-67
2021/11/09 13:09:44;;;;;;;5.82;3.38;;;10.30;69.40;;;;;;5057706;28;20033;-67
2021/11/09 13:12:14;;;;;;;8.05;3.90;;;10.30;69.10;;;;;;5056750;28;20033;-66
2021/11/09 13:14:42;;;;;;;5.93;3.78;;;10.30;69.10;;;;;;5057596;28;20389;-67
2021/11/09 13:17:20;;;;;;;7.93;3.97;;;10.30;69.20;;;;;;5058613;28;20495;-66
2021/11/09 13:19:56;;;;;;;7.72;3.85;;;10.30;68.50;;;;;;5060384;28;20029;-67
2021/11/09 13:22:28;;;;;;;5.85;4.28;;;10.30;69.00;;;;;;5059472;28;20025;-66
2021/11/09 13:25:01;;;;;;;6.13;3.50;;;10.30;69.10;;;;;;5061974;28;20036;-67
2021/11/09 13:27:37;;;;;;;4.95;3.25;;;10.30;68.20;;;;;;5058491;28;20060;-67
2021/11/09 13:30:14;;;;;;;5.18;3.70;;;10.30;67.80;;;;;;5058809;28;20047;-66
2021/11/09 13:32:42;;;;;;;8.38;3.75;;;10.30;67.60;;;;;;5057168;28;20499;-66
2021/11/09 13:35:26;;;;;;;6.03;3.38;;;10.40;68.40;;;;;;5057493;28;20419;-66
2021/11/09 13:38:18;;;;;;;7.47;3.90;;;10.40;67.20;;;;;;5056754;28;20043;-66
2021/11/09 13:41:07;;;;;;;7.68;3.97;;;10.40;67.30;;;;;;5056211;28;20556;-67
2021/11/09 13:43:37;;;;;;;7.60;3.92;;;10.40;68.10;;;;;;5058776;28;20478;-66
2021/11/09 13:46:10;;;;;;;7.68;3.88;;;10.40;68.00;;;;;;5057747;28;20056;-66
2021/11/09 13:48:39;;;;;;;9.02;4.45;;;10.40;68.00;;;;;;5056663;28;20029;-69
2021/11/09 13:51:07;;;;;;;8.15;4.68;;;10.40;68.30;;;;;;5056446;28;20052;-66
2021/11/09 13:53:38;;;;;;;8.18;4.13;;;10.40;68.10;;;;;;5060514;28;20562;-67
2021/11/09 13:56:05;;;;;;;10.70;4.30;;;10.40;68.20;;;;;;5058450;28;20082;-66
2021/11/09 13:58:31;;;;;;;7.10;3.97;;;10.40;68.20;;;;;;5058027;28;20024;-67
2021/11/09 14:01:01;;;;;;;7.13;4.20;;;10.40;68.40;;;;;;5057412;28;20423;-65
2021/11/09 14:03:59;;;;;;;6.57;3.95;;;10.40;68.20;;;;;;5058011;28;20039;-67
2021/11/09 14:12:18;;;;;;;9.77;4.07;;;10.50;69.20;;;;;;5057330;28;20032;-67
2021/11/09 14:16:57;;;;;;;8.68;4.22;;;10.50;68.00;;;;;;5055494;28;20028;-67
2021/11/09 14:19:36;;;;;;;7.15;3.90;;;10.50;66.80;;;;;;5057368;28;20033;-66
2021/11/09 14:22:28;;;;;;;5.97;3.90;;;10.40;66.90;;;;;;5055147;28;20120;-66
2021/11/09 14:25:02;;;;;;;6.88;3.95;;;10.40;66.20;;;;;;5057089;28;20059;-66
2021/11/09 14:27:31;;;;;;;9.50;4.20;;;10.40;66.90;;;;;;5056748;28;20024;-66
2021/11/09 14:30:01;;;;;;;8.50;3.97;;;10.40;67.40;;;;;;5057436;28;20028;-66
2021/11/09 14:32:35;;;;;;;5.53;3.85;;;10.40;67.30;;;;;;5053161;28;20436;-65
2021/11/09 14:35:03;;;;;;;5.07;3.60;;;10.40;67.00;;;;;;5054305;28;20032;-66
2021/11/09 14:37:36;;;;;;;6.97;3.95;;;10.30;67.10;;;;;;5055880;28;20032;-66
2021/11/09 14:40:13;;;;;;;8.85;4.15;;;10.30;67.00;;;;;;5055471;28;20464;-66
2021/11/09 14:42:56;;;;;;;4.78;3.40;;;10.30;66.00;;;;;;5059550;28;20032;-67
2021/11/09 14:48:06;;;;;;;7.72;3.75;;;10.30;66.10;;;;;;5056930;28;20040;-66
2021/11/09 14:53:10;;;;;;;5.65;3.35;;;10.20;66.40;;;;;;5056946;28;20052;-66
2021/11/09 14:55:53;;;;;;;8.18;4.18;;;10.20;66.60;;;;;;5058804;28;20128;-66
2021/11/09 14:58:29;;;;;;;9.45;3.80;;;10.20;65.90;;;;;;5057308;28;20033;-67
2021/11/09 15:01:02;;;;;;;6.20;3.78;;;10.20;66.00;;;;;;5056423;28;20058;-67
2021/11/09 15:03:31;;;;;;;9.70;3.92;;;10.10;66.50;;;;;;5055167;28;20037;-67
2021/11/09 15:05:58;;;;;;;7.90;3.65;;;10.10;66.40;;;;;;5055273;28;20035;-67
2021/11/09 15:27:19;;;;;;;5.78;3.42;;;9.80;66.30;;;;;;5056200;28;20438;-66
2021/11/09 15:29:56;;;;;;;7.68;3.40;;;9.80;66.30;;;;;;5055911;28;20033;-67
2021/11/09 15:32:43;;;;;;;6.40;3.67;;;9.70;66.20;;;;;;5057289;28;20036;-67
2021/11/09 15:37:37;;;;;;;6.20;3.72;;;9.70;66.30;;;;;;5055296;28;20550;-65
2021/11/09 15:40:11;;;;;;;7.60;3.92;;;9.60;66.20;;;;;;5055660;28;20078;-65
2021/11/09 15:42:37;;;;;;;7.28;3.88;;;9.60;66.00;;;;;;5054213;28;20467;-66
2021/11/09 15:45:04;;;;;;;7.93;4.15;;;9.60;66.30;;;;;;5055817;28;20546;-66
2021/11/09 15:47:30;;;;;;;6.93;5.05;;;9.50;66.20;;;;;;5056979;28;20039;-66